sensor_id;sensor_type;location;lat;lon;timestamp;P1;durP1;ratioP1;P2;durP2;ratioP2
74492;SDS011;62978;51.094;-115.362;2022-10-22T00:00:01;10.40;;;3.80;;
74492;SDS011;62978;51.094;-115.362;2022-10-22T00:02:31;9.60;;;3.90;;
74492;SDS011;62978;51.094;-115.362;2022-10-22T00:04:58;8.90;;;3.80;;
74492;SDS011;62978;51.094;-115.362;2022-10-22T00:07:25;11.30;;;3.50;;
74492;SDS011;62978;51.094;-115.362;2022-10-22T00:09:53;10.70;;;3.10;;
74492;SDS011;62978;51.094;-115.362;2022-10-22T00:12:21;8.70;;;3.30;;
74492;SDS011;62978;51.094;-115.362;2022-10-22T00:14:48;8.50;;;3.30;;
74492;SDS011;62978;51.094;-115.362;2022-10-22T00:17:16;11.70;;;4.90;;
74492;SDS011;62978;51.094;-115.362;2022-10-22T00:19:43;12.60;;;5.20;;
74492;SDS011;62978;51.094;-115.362;2022-10-22T00:22:11;10.70;;;4.80;;
74492;SDS011;62978;51.094;-115.362;2022-10-22T00:24:39;11.50;;;4.60;;
74492;SDS011;62978;51.094;-115.362;2022-10-22T00:27:09;10.40;;;3.70;;
74492;SDS011;62978;51.094;-115.362;2022-10-22T00:29:37;12.10;;;4.30;;
74492;SDS011;62978;51.094;-115.362;2022-10-22T00:32:05;9.70;;;3.30;;
74492;SDS011;62978;51.094;-115.362;2022-10-22T00:34:33;9.30;;;2.80;;
74492;SDS011;62978;51.094;-115.362;2022-10-22T00:37:00;9.50;;;3.20;;
74492;SDS011;62978;51.094;-115.362;2022-10-22T00:39:29;8.50;;;3.90;;
74492;SDS011;62978;51.094;-115.362;2022-10-22T00:41:57;10.80;;;3.60;;
74492;SDS011;62978;51.094;-115.362;2022-10-22T00:45:00;9.80;;;3.40;;
74492;SDS011;62978;51.094;-115.362;2022-10-22T00:50:13;9.70;;;3.40;;
74492;SDS011;62978;51.094;-115.362;2022-10-22T00:52:47;7.50;;;3.20;;
74492;SDS011;62978;51.094;-115.362;2022-10-22T00:55:15;8.50;;;3.20;;
74492;SDS011;62978;51.094;-115.362;2022-10-22T00:57:44;10.10;;;3.30;;
74492;SDS011;62978;51.094;-115.362;2022-10-22T01:00:13;9.70;;;3.10;;
74492;SDS011;62978;51.094;-115.362;2022-10-22T01:02:41;7.80;;;3.20;;
74492;SDS011;62978;51.094;-115.362;2022-10-22T01:05:08;6.50;;;2.10;;
74492;SDS011;62978;51.094;-115.362;2022-10-22T01:07:43;6.90;;;2.80;;
74492;SDS011;62978;51.094;-115.362;2022-10-22T01:16:58;11.30;;;3.80;;
74492;SDS011;62978;51.094;-115.362;2022-10-22T01:29:25;8.10;;;2.90;;
74492;SDS011;62978;51.094;-115.362;2022-10-22T01:32:00;8.50;;;3.30;;
74492;SDS011;62978;51.094;-115.362;2022-10-22T01:34:32;7.30;;;2.90;;
74492;SDS011;62978;51.094;-115.362;2022-10-22T01:37:02;8.20;;;2.80;;
74492;SDS011;62978;51.094;-115.362;2022-10-22T01:39:30;8.50;;;3.00;;
74492;SDS011;62978;51.094;-115.362;2022-10-22T01:42:00;9.60;;;2.70;;
74492;SDS011;62978;51.094;-115.362;2022-10-22T01:44:33;8.50;;;3.50;;
74492;SDS011;62978;51.094;-115.362;2022-10-22T01:47:16;8.70;;;3.20;;
74492;SDS011;62978;51.094;-115.362;2022-10-22T01:50:31;10.50;;;2.60;;
74492;SDS011;62978;51.094;-115.362;2022-10-22T01:53:29;7.30;;;3.10;;
74492;SDS011;62978;51.094;-115.362;2022-10-22T02:08:03;7.70;;;2.60;;
74492;SDS011;62978;51.094;-115.362;2022-10-22T02:10:41;6.10;;;3.00;;
74492;SDS011;62978;51.094;-115.362;2022-10-22T02:13:16;6.40;;;2.80;;
74492;SDS011;62978;51.094;-115.362;2022-10-22T02:15:58;6.50;;;2.60;;
74492;SDS011;62978;51.094;-115.362;2022-10-22T02:18:30;6.50;;;2.20;;
74492;SDS011;62978;51.094;-115.362;2022-10-22T02:21:01;5.30;;;2.20;;
74492;SDS011;62978;51.094;-115.362;2022-10-22T02:23:28;7.30;;;2.60;;
74492;SDS011;62978;51.094;-115.362;2022-10-22T02:26:33;5.20;;;2.20;;
74492;SDS011;62978;51.094;-115.362;2022-10-22T02:29:17;6.50;;;2.40;;
74492;SDS011;62978;51.094;-115.362;2022-10-22T02:31:53;6.60;;;2.40;;
74492;SDS011;62978;51.094;-115.362;2022-10-22T02:34:28;5.90;;;2.80;;
74492;SDS011;62978;51.094;-115.362;2022-10-22T02:36:59;5.50;;;2.40;;
74492;SDS011;62978;51.094;-115.362;2022-10-22T02:39:30;6.50;;;2.70;;
74492;SDS011;62978;51.094;-115.362;2022-10-22T02:42:00;7.10;;;2.50;;
74492;SDS011;62978;51.094;-115.362;2022-10-22T02:44:29;6.80;;;2.70;;
74492;SDS011;62978;51.094;-115.362;2022-10-22T02:46:57;5.40;;;2.60;;
74492;SDS011;62978;51.094;-115.362;2022-10-22T02:49:25;6.80;;;2.40;;
74492;SDS011;62978;51.094;-115.362;2022-10-22T02:51:53;8.20;;;3.20;;
74492;SDS011;62978;51.094;-115.362;2022-10-22T02:54:20;7.80;;;2.30;;
74492;SDS011;62978;51.094;-115.362;2022-10-22T02:56:48;5.90;;;2.60;;
74492;SDS011;62978;51.094;-115.362;2022-10-22T02:59:15;8.00;;;3.10;;
74492;SDS011;62978;51.094;-115.362;2022-10-22T03:01:43;9.00;;;3.40;;
74492;SDS011;62978;51.094;-115.362;2022-10-22T03:04:10;9.80;;;3.10;;
74492;SDS011;62978;51.094;-115.362;2022-10-22T03:06:39;6.50;;;2.40;;
74492;SDS011;62978;51.094;-115.362;2022-10-22T03:09:10;6.00;;;2.50;;
74492;SDS011;62978;51.094;-115.362;2022-10-22T03:11:37;5.70;;;2.60;;
74492;SDS011;62978;51.094;-115.362;2022-10-22T03:14:05;6.00;;;2.60;;
74492;SDS011;62978;51.094;-115.362;2022-10-22T03:16:32;7.70;;;2.10;;
74492;SDS011;62978;51.094;-115.362;2022-10-22T03:19:00;7.90;;;2.80;;
74492;SDS011;62978;51.094;-115.362;2022-10-22T03:21:44;8.20;;;2.80;;
74492;SDS011;62978;51.094;-115.362;2022-10-22T03:24:26;6.70;;;2.50;;
74492;SDS011;62978;51.094;-115.362;2022-10-22T03:26:57;7.00;;;3.30;;
74492;SDS011;62978;51.094;-115.362;2022-10-22T03:29:26;6.10;;;2.60;;
74492;SDS011;62978;51.094;-115.362;2022-10-22T03:31:54;7.70;;;3.30;;
74492;SDS011;62978;51.094;-115.362;2022-10-22T03:34:22;6.90;;;3.00;;
74492;SDS011;62978;51.094;-115.362;2022-10-22T03:36:51;8.00;;;3.50;;
74492;SDS011;62978;51.094;-115.362;2022-10-22T03:39:21;8.50;;;3.70;;
74492;SDS011;62978;51.094;-115.362;2022-10-22T03:41:50;8.00;;;2.70;;
74492;SDS011;62978;51.094;-115.362;2022-10-22T03:44:19;9.10;;;2.90;;
74492;SDS011;62978;51.094;-115.362;2022-10-22T03:46:49;9.20;;;3.40;;
74492;SDS011;62978;51.094;-115.362;2022-10-22T03:49:17;8.70;;;3.50;;
74492;SDS011;62978;51.094;-115.362;2022-10-22T03:51:45;7.40;;;3.50;;
74492;SDS011;62978;51.094;-115.362;2022-10-22T03:54:15;8.30;;;3.00;;
74492;SDS011;62978;51.094;-115.362;2022-10-22T03:56:43;9.00;;;3.20;;
74492;SDS011;62978;51.094;-115.362;2022-10-22T03:59:14;10.90;;;4.00;;
74492;SDS011;62978;51.094;-115.362;2022-10-22T04:01:41;8.40;;;3.60;;
74492;SDS011;62978;51.094;-115.362;2022-10-22T04:04:12;11.30;;;4.30;;
74492;SDS011;62978;51.094;-115.362;2022-10-22T04:06:40;10.60;;;4.80;;
74492;SDS011;62978;51.094;-115.362;2022-10-22T04:09:07;14.10;;;5.20;;
74492;SDS011;62978;51.094;-115.362;2022-10-22T04:11:35;11.90;;;4.20;;
74492;SDS011;62978;51.094;-115.362;2022-10-22T04:14:03;9.80;;;4.90;;
74492;SDS011;62978;51.094;-115.362;2022-10-22T04:16:31;10.30;;;4.40;;
74492;SDS011;62978;51.094;-115.362;2022-10-22T04:19:01;13.60;;;5.20;;
74492;SDS011;62978;51.094;-115.362;2022-10-22T04:21:32;11.70;;;4.00;;
74492;SDS011;62978;51.094;-115.362;2022-10-22T04:24:04;15.10;;;4.40;;
74492;SDS011;62978;51.094;-115.362;2022-10-22T04:26:32;11.60;;;4.00;;
74492;SDS011;62978;51.094;-115.362;2022-10-22T04:29:05;11.20;;;4.50;;
74492;SDS011;62978;51.094;-115.362;2022-10-22T04:31:33;10.80;;;3.70;;
74492;SDS011;62978;51.094;-115.362;2022-10-22T04:34:02;14.10;;;4.40;;
74492;SDS011;62978;51.094;-115.362;2022-10-22T04:36:30;10.10;;;3.90;;
74492;SDS011;62978;51.094;-115.362;2022-10-22T04:39:01;13.40;;;4.10;;
74492;SDS011;62978;51.094;-115.362;2022-10-22T04:41:31;12.50;;;4.30;;
74492;SDS011;62978;51.094;-115.362;2022-10-22T04:44:01;13.50;;;5.10;;
74492;SDS011;62978;51.094;-115.362;2022-10-22T04:46:31;10.30;;;4.50;;
74492;SDS011;62978;51.094;-115.362;2022-10-22T04:49:00;12.60;;;4.10;;
74492;SDS011;62978;51.094;-115.362;2022-10-22T04:51:32;12.00;;;5.00;;
74492;SDS011;62978;51.094;-115.362;2022-10-22T04:53:59;11.10;;;4.60;;
74492;SDS011;62978;51.094;-115.362;2022-10-22T04:56:29;15.80;;;6.20;;
74492;SDS011;62978;51.094;-115.362;2022-10-22T04:59:03;14.40;;;5.60;;
74492;SDS011;62978;51.094;-115.362;2022-10-22T05:01:38;12.40;;;5.80;;
74492;SDS011;62978;51.094;-115.362;2022-10-22T05:04:10;12.50;;;5.50;;
74492;SDS011;62978;51.094;-115.362;2022-10-22T05:06:40;14.50;;;6.80;;
74492;SDS011;62978;51.094;-115.362;2022-10-22T05:09:15;16.40;;;7.10;;
74492;SDS011;62978;51.094;-115.362;2022-10-22T05:11:46;15.50;;;7.00;;
74492;SDS011;62978;51.094;-115.362;2022-10-22T05:14:22;16.00;;;7.50;;
74492;SDS011;62978;51.094;-115.362;2022-10-22T05:16:51;16.10;;;8.00;;
74492;SDS011;62978;51.094;-115.362;2022-10-22T05:19:21;13.70;;;6.50;;
74492;SDS011;62978;51.094;-115.362;2022-10-22T05:21:58;14.20;;;7.10;;
74492;SDS011;62978;51.094;-115.362;2022-10-22T05:24:29;14.30;;;7.30;;
74492;SDS011;62978;51.094;-115.362;2022-10-22T05:26:59;13.20;;;6.10;;
74492;SDS011;62978;51.094;-115.362;2022-10-22T05:29:27;13.10;;;6.70;;
74492;SDS011;62978;51.094;-115.362;2022-10-22T05:31:55;13.60;;;6.70;;
74492;SDS011;62978;51.094;-115.362;2022-10-22T05:34:22;17.00;;;6.90;;
74492;SDS011;62978;51.094;-115.362;2022-10-22T05:36:50;13.10;;;6.90;;
74492;SDS011;62978;51.094;-115.362;2022-10-22T05:39:17;11.50;;;5.90;;
74492;SDS011;62978;51.094;-115.362;2022-10-22T05:41:45;13.60;;;6.60;;
74492;SDS011;62978;51.094;-115.362;2022-10-22T05:44:12;15.20;;;7.10;;
74492;SDS011;62978;51.094;-115.362;2022-10-22T05:46:40;16.10;;;6.70;;
74492;SDS011;62978;51.094;-115.362;2022-10-22T05:49:13;15.00;;;6.10;;
74492;SDS011;62978;51.094;-115.362;2022-10-22T05:51:41;12.90;;;5.40;;
74492;SDS011;62978;51.094;-115.362;2022-10-22T05:54:16;10.30;;;4.70;;
74492;SDS011;62978;51.094;-115.362;2022-10-22T05:56:45;10.50;;;4.80;;
74492;SDS011;62978;51.094;-115.362;2022-10-22T05:59:13;9.10;;;3.80;;
74492;SDS011;62978;51.094;-115.362;2022-10-22T06:01:40;10.30;;;4.10;;
74492;SDS011;62978;51.094;-115.362;2022-10-22T06:04:10;8.90;;;4.00;;
74492;SDS011;62978;51.094;-115.362;2022-10-22T06:06:51;9.40;;;4.10;;
74492;SDS011;62978;51.094;-115.362;2022-10-22T06:09:37;9.60;;;3.80;;
74492;SDS011;62978;51.094;-115.362;2022-10-22T06:12:05;9.30;;;4.00;;
74492;SDS011;62978;51.094;-115.362;2022-10-22T06:14:38;10.70;;;4.50;;
74492;SDS011;62978;51.094;-115.362;2022-10-22T06:17:06;11.90;;;4.80;;
74492;SDS011;62978;51.094;-115.362;2022-10-22T06:19:34;8.70;;;3.80;;
74492;SDS011;62978;51.094;-115.362;2022-10-22T06:22:02;10.10;;;3.80;;
74492;SDS011;62978;51.094;-115.362;2022-10-22T06:24:30;9.50;;;3.30;;
74492;SDS011;62978;51.094;-115.362;2022-10-22T06:26:57;7.80;;;3.10;;
74492;SDS011;62978;51.094;-115.362;2022-10-22T06:29:24;7.90;;;2.90;;
74492;SDS011;62978;51.094;-115.362;2022-10-22T06:31:51;6.20;;;2.70;;
74492;SDS011;62978;51.094;-115.362;2022-10-22T06:34:19;5.30;;;2.30;;
74492;SDS011;62978;51.094;-115.362;2022-10-22T06:36:47;5.90;;;2.70;;
74492;SDS011;62978;51.094;-115.362;2022-10-22T06:39:17;6.80;;;3.20;;
74492;SDS011;62978;51.094;-115.362;2022-10-22T06:41:44;7.00;;;2.80;;
74492;SDS011;62978;51.094;-115.362;2022-10-22T06:44:16;8.30;;;2.90;;
74492;SDS011;62978;51.094;-115.362;2022-10-22T06:46:47;8.20;;;3.10;;
74492;SDS011;62978;51.094;-115.362;2022-10-22T06:49:19;6.70;;;2.90;;
74492;SDS011;62978;51.094;-115.362;2022-10-22T06:51:51;6.40;;;2.70;;
74492;SDS011;62978;51.094;-115.362;2022-10-22T06:54:20;5.40;;;2.20;;
74492;SDS011;62978;51.094;-115.362;2022-10-22T06:56:48;3.90;;;1.50;;
74492;SDS011;62978;51.094;-115.362;2022-10-22T06:59:15;2.90;;;1.20;;
74492;SDS011;62978;51.094;-115.362;2022-10-22T07:01:42;2.40;;;0.80;;
74492;SDS011;62978;51.094;-115.362;2022-10-22T07:04:10;2.40;;;0.70;;
74492;SDS011;62978;51.094;-115.362;2022-10-22T07:06:37;2.00;;;0.50;;
74492;SDS011;62978;51.094;-115.362;2022-10-22T07:09:04;2.10;;;0.50;;
74492;SDS011;62978;51.094;-115.362;2022-10-22T07:11:51;1.80;;;0.50;;
74492;SDS011;62978;51.094;-115.362;2022-10-22T07:14:19;0.70;;;0.40;;
74492;SDS011;62978;51.094;-115.362;2022-10-22T07:16:46;1.40;;;0.70;;
74492;SDS011;62978;51.094;-115.362;2022-10-22T07:19:13;1.40;;;0.50;;
74492;SDS011;62978;51.094;-115.362;2022-10-22T07:21:40;1.10;;;0.40;;
74492;SDS011;62978;51.094;-115.362;2022-10-22T07:24:08;0.80;;;0.50;;
74492;SDS011;62978;51.094;-115.362;2022-10-22T07:26:35;0.60;;;0.20;;
74492;SDS011;62978;51.094;-115.362;2022-10-22T07:29:03;0.90;;;0.40;;
74492;SDS011;62978;51.094;-115.362;2022-10-22T07:31:31;1.20;;;0.30;;
74492;SDS011;62978;51.094;-115.362;2022-10-22T07:33:58;0.50;;;0.40;;
74492;SDS011;62978;51.094;-115.362;2022-10-22T07:36:26;0.60;;;0.30;;
74492;SDS011;62978;51.094;-115.362;2022-10-22T07:38:55;1.00;;;0.20;;
74492;SDS011;62978;51.094;-115.362;2022-10-22T07:41:25;3.20;;;0.60;;
74492;SDS011;62978;51.094;-115.362;2022-10-22T07:43:54;1.70;;;0.50;;
74492;SDS011;62978;51.094;-115.362;2022-10-22T07:46:22;1.40;;;0.30;;
74492;SDS011;62978;51.094;-115.362;2022-10-22T07:48:51;1.00;;;0.50;;
74492;SDS011;62978;51.094;-115.362;2022-10-22T07:51:18;0.70;;;0.30;;
74492;SDS011;62978;51.094;-115.362;2022-10-22T07:53:45;1.10;;;0.60;;
74492;SDS011;62978;51.094;-115.362;2022-10-22T07:56:13;1.10;;;0.40;;
74492;SDS011;62978;51.094;-115.362;2022-10-22T07:58:40;0.80;;;0.40;;
74492;SDS011;62978;51.094;-115.362;2022-10-22T08:01:08;1.00;;;0.30;;
74492;SDS011;62978;51.094;-115.362;2022-10-22T08:03:35;1.60;;;0.40;;
74492;SDS011;62978;51.094;-115.362;2022-10-22T08:06:02;1.50;;;0.60;;
74492;SDS011;62978;51.094;-115.362;2022-10-22T08:08:30;1.30;;;0.60;;
74492;SDS011;62978;51.094;-115.362;2022-10-22T08:10:58;0.70;;;0.40;;
74492;SDS011;62978;51.094;-115.362;2022-10-22T08:13:27;1.10;;;0.60;;
74492;SDS011;62978;51.094;-115.362;2022-10-22T08:15:59;0.70;;;0.40;;
74492;SDS011;62978;51.094;-115.362;2022-10-22T08:18:27;2.80;;;0.60;;
74492;SDS011;62978;51.094;-115.362;2022-10-22T08:20:54;1.30;;;0.40;;
74492;SDS011;62978;51.094;-115.362;2022-10-22T08:23:22;1.00;;;0.40;;
74492;SDS011;62978;51.094;-115.362;2022-10-22T08:25:49;1.30;;;0.40;;
74492;SDS011;62978;51.094;-115.362;2022-10-22T08:28:17;1.70;;;0.90;;
74492;SDS011;62978;51.094;-115.362;2022-10-22T08:30:44;0.90;;;0.50;;
74492;SDS011;62978;51.094;-115.362;2022-10-22T08:33:13;1.00;;;0.50;;
74492;SDS011;62978;51.094;-115.362;2022-10-22T08:35:40;1.70;;;0.50;;
74492;SDS011;62978;51.094;-115.362;2022-10-22T08:38:07;1.00;;;0.60;;
74492;SDS011;62978;51.094;-115.362;2022-10-22T08:40:38;1.70;;;0.60;;
74492;SDS011;62978;51.094;-115.362;2022-10-22T08:43:24;1.40;;;0.70;;
74492;SDS011;62978;51.094;-115.362;2022-10-22T08:46:32;1.90;;;0.50;;
74492;SDS011;62978;51.094;-115.362;2022-10-22T08:49:19;0.90;;;0.50;;
74492;SDS011;62978;51.094;-115.362;2022-10-22T08:51:55;3.10;;;1.10;;
74492;SDS011;62978;51.094;-115.362;2022-10-22T08:54:32;4.60;;;1.10;;
74492;SDS011;62978;51.094;-115.362;2022-10-22T08:59:58;2.10;;;0.90;;
74492;SDS011;62978;51.094;-115.362;2022-10-22T09:02:58;4.00;;;0.70;;
74492;SDS011;62978;51.094;-115.362;2022-10-22T09:08:56;2.90;;;0.70;;
74492;SDS011;62978;51.094;-115.362;2022-10-22T09:11:51;2.00;;;0.70;;
74492;SDS011;62978;51.094;-115.362;2022-10-22T09:14:22;1.30;;;0.60;;
74492;SDS011;62978;51.094;-115.362;2022-10-22T09:19:56;1.70;;;0.70;;
74492;SDS011;62978;51.094;-115.362;2022-10-22T09:25:45;3.70;;;1.00;;
74492;SDS011;62978;51.094;-115.362;2022-10-22T09:28:14;5.50;;;1.30;;
74492;SDS011;62978;51.094;-115.362;2022-10-22T09:30:41;2.70;;;0.80;;
74492;SDS011;62978;51.094;-115.362;2022-10-22T09:33:12;2.30;;;0.90;;
74492;SDS011;62978;51.094;-115.362;2022-10-22T09:35:54;3.30;;;0.80;;
74492;SDS011;62978;51.094;-115.362;2022-10-22T09:38:31;3.50;;;0.60;;
74492;SDS011;62978;51.094;-115.362;2022-10-22T09:41:05;1.70;;;0.60;;
74492;SDS011;62978;51.094;-115.362;2022-10-22T09:43:34;2.10;;;0.70;;
74492;SDS011;62978;51.094;-115.362;2022-10-22T09:46:05;2.00;;;0.70;;
74492;SDS011;62978;51.094;-115.362;2022-10-22T09:48:43;2.10;;;0.60;;
74492;SDS011;62978;51.094;-115.362;2022-10-22T09:51:24;3.30;;;0.60;;
74492;SDS011;62978;51.094;-115.362;2022-10-22T09:54:23;4.00;;;0.70;;
74492;SDS011;62978;51.094;-115.362;2022-10-22T09:56:57;1.80;;;0.70;;
74492;SDS011;62978;51.094;-115.362;2022-10-22T09:59:36;2.10;;;1.00;;
74492;SDS011;62978;51.094;-115.362;2022-10-22T10:02:14;4.40;;;0.80;;
74492;SDS011;62978;51.094;-115.362;2022-10-22T10:04:53;4.60;;;0.90;;
74492;SDS011;62978;51.094;-115.362;2022-10-22T10:07:27;3.10;;;0.80;;
74492;SDS011;62978;51.094;-115.362;2022-10-22T10:09:57;4.50;;;0.90;;
74492;SDS011;62978;51.094;-115.362;2022-10-22T10:22:22;1.90;;;0.70;;
74492;SDS011;62978;51.094;-115.362;2022-10-22T10:29:50;3.50;;;0.80;;
74492;SDS011;62978;51.094;-115.362;2022-10-22T10:36:18;2.90;;;0.70;;
74492;SDS011;62978;51.094;-115.362;2022-10-22T10:39:07;3.10;;;0.90;;
74492;SDS011;62978;51.094;-115.362;2022-10-22T10:42:04;3.70;;;1.00;;
74492;SDS011;62978;51.094;-115.362;2022-10-22T10:45:06;3.00;;;0.90;;
74492;SDS011;62978;51.094;-115.362;2022-10-22T10:48:05;1.90;;;0.60;;
74492;SDS011;62978;51.094;-115.362;2022-10-22T11:05:44;6.10;;;0.60;;
74492;SDS011;62978;51.094;-115.362;2022-10-22T11:08:20;2.60;;;0.90;;
74492;SDS011;62978;51.094;-115.362;2022-10-22T11:11:04;4.00;;;1.00;;
74492;SDS011;62978;51.094;-115.362;2022-10-22T11:13:52;4.60;;;1.20;;
74492;SDS011;62978;51.094;-115.362;2022-10-22T11:24:48;10.70;;;2.00;;
74492;SDS011;62978;51.094;-115.362;2022-10-22T11:30:23;5.40;;;1.70;;
74492;SDS011;62978;51.094;-115.362;2022-10-22T11:32:59;6.60;;;1.70;;
74492;SDS011;62978;51.094;-115.362;2022-10-22T11:35:42;5.70;;;1.50;;
74492;SDS011;62978;51.094;-115.362;2022-10-22T11:38:15;8.10;;;1.60;;
74492;SDS011;62978;51.094;-115.362;2022-10-22T11:43:55;5.10;;;1.60;;
74492;SDS011;62978;51.094;-115.362;2022-10-22T11:46:56;6.40;;;2.20;;
74492;SDS011;62978;51.094;-115.362;2022-10-22T11:50:13;7.70;;;2.70;;
74492;SDS011;62978;51.094;-115.362;2022-10-22T11:53:16;8.90;;;3.00;;
74492;SDS011;62978;51.094;-115.362;2022-10-22T11:55:57;11.90;;;4.10;;
74492;SDS011;62978;51.094;-115.362;2022-10-22T11:58:43;17.00;;;5.10;;
74492;SDS011;62978;51.094;-115.362;2022-10-22T12:03:48;11.40;;;3.20;;
74492;SDS011;62978;51.094;-115.362;2022-10-22T12:11:48;7.90;;;2.70;;
74492;SDS011;62978;51.094;-115.362;2022-10-22T12:14:30;10.30;;;2.40;;
74492;SDS011;62978;51.094;-115.362;2022-10-22T12:22:32;6.20;;;2.50;;
74492;SDS011;62978;51.094;-115.362;2022-10-22T12:25:23;8.20;;;2.50;;
74492;SDS011;62978;51.094;-115.362;2022-10-22T12:27:56;7.10;;;2.80;;
74492;SDS011;62978;51.094;-115.362;2022-10-22T12:30:28;7.60;;;2.10;;
74492;SDS011;62978;51.094;-115.362;2022-10-22T12:33:03;8.50;;;3.40;;
74492;SDS011;62978;51.094;-115.362;2022-10-22T12:35:40;14.30;;;4.40;;
74492;SDS011;62978;51.094;-115.362;2022-10-22T12:38:15;10.90;;;3.90;;
74492;SDS011;62978;51.094;-115.362;2022-10-22T12:40:46;8.00;;;3.00;;
74492;SDS011;62978;51.094;-115.362;2022-10-22T12:43:23;10.10;;;2.90;;
74492;SDS011;62978;51.094;-115.362;2022-10-22T12:45:55;7.10;;;2.10;;
74492;SDS011;62978;51.094;-115.362;2022-10-22T12:48:28;6.80;;;2.30;;
74492;SDS011;62978;51.094;-115.362;2022-10-22T12:51:01;7.80;;;2.30;;
74492;SDS011;62978;51.094;-115.362;2022-10-22T12:53:47;9.70;;;2.20;;
74492;SDS011;62978;51.094;-115.362;2022-10-22T12:56:31;9.40;;;2.20;;
74492;SDS011;62978;51.094;-115.362;2022-10-22T12:59:01;8.60;;;2.60;;
74492;SDS011;62978;51.094;-115.362;2022-10-22T13:01:39;7.20;;;2.40;;
74492;SDS011;62978;51.094;-115.362;2022-10-22T13:09:44;7.60;;;2.70;;
74492;SDS011;62978;51.094;-115.362;2022-10-22T13:12:26;12.80;;;3.30;;
74492;SDS011;62978;51.094;-115.362;2022-10-22T13:15:40;9.20;;;2.80;;
74492;SDS011;62978;51.094;-115.362;2022-10-22T13:18:22;9.50;;;2.90;;
74492;SDS011;62978;51.094;-115.362;2022-10-22T13:20:59;6.90;;;2.70;;
74492;SDS011;62978;51.094;-115.362;2022-10-22T13:23:30;6.00;;;2.30;;
74492;SDS011;62978;51.094;-115.362;2022-10-22T13:26:14;5.60;;;1.60;;
74492;SDS011;62978;51.094;-115.362;2022-10-22T13:28:50;7.90;;;2.00;;
74492;SDS011;62978;51.094;-115.362;2022-10-22T13:31:31;6.00;;;2.50;;
74492;SDS011;62978;51.094;-115.362;2022-10-22T13:34:02;6.50;;;2.20;;
74492;SDS011;62978;51.094;-115.362;2022-10-22T13:36:35;7.80;;;2.50;;
74492;SDS011;62978;51.094;-115.362;2022-10-22T13:39:03;7.30;;;3.00;;
74492;SDS011;62978;51.094;-115.362;2022-10-22T13:41:39;6.30;;;2.10;;
74492;SDS011;62978;51.094;-115.362;2022-10-22T13:44:07;5.70;;;1.60;;
74492;SDS011;62978;51.094;-115.362;2022-10-22T13:46:35;6.70;;;2.10;;
74492;SDS011;62978;51.094;-115.362;2022-10-22T13:49:14;6.00;;;2.20;;
74492;SDS011;62978;51.094;-115.362;2022-10-22T13:51:43;5.40;;;1.90;;
74492;SDS011;62978;51.094;-115.362;2022-10-22T13:54:20;5.40;;;1.50;;
74492;SDS011;62978;51.094;-115.362;2022-10-22T13:56:49;4.30;;;1.60;;
74492;SDS011;62978;51.094;-115.362;2022-10-22T13:59:17;3.00;;;0.80;;
74492;SDS011;62978;51.094;-115.362;2022-10-22T14:01:45;2.00;;;0.60;;
74492;SDS011;62978;51.094;-115.362;2022-10-22T14:04:13;2.90;;;0.90;;
74492;SDS011;62978;51.094;-115.362;2022-10-22T14:06:40;3.90;;;0.70;;
74492;SDS011;62978;51.094;-115.362;2022-10-22T14:09:12;2.80;;;0.90;;
74492;SDS011;62978;51.094;-115.362;2022-10-22T14:11:41;1.70;;;0.80;;
74492;SDS011;62978;51.094;-115.362;2022-10-22T14:14:08;2.30;;;0.90;;
74492;SDS011;62978;51.094;-115.362;2022-10-22T14:16:39;3.10;;;0.90;;
74492;SDS011;62978;51.094;-115.362;2022-10-22T14:19:08;3.70;;;0.80;;
74492;SDS011;62978;51.094;-115.362;2022-10-22T14:21:40;3.40;;;1.40;;
74492;SDS011;62978;51.094;-115.362;2022-10-22T14:24:09;4.20;;;1.50;;
74492;SDS011;62978;51.094;-115.362;2022-10-22T14:26:36;3.10;;;1.10;;
74492;SDS011;62978;51.094;-115.362;2022-10-22T14:29:04;2.20;;;0.90;;
74492;SDS011;62978;51.094;-115.362;2022-10-22T14:31:31;1.30;;;0.60;;
74492;SDS011;62978;51.094;-115.362;2022-10-22T14:33:58;1.40;;;0.60;;
74492;SDS011;62978;51.094;-115.362;2022-10-22T14:36:25;1.90;;;0.40;;
74492;SDS011;62978;51.094;-115.362;2022-10-22T14:38:53;1.20;;;0.40;;
74492;SDS011;62978;51.094;-115.362;2022-10-22T14:41:24;1.50;;;0.80;;
74492;SDS011;62978;51.094;-115.362;2022-10-22T14:43:53;1.30;;;0.50;;
74492;SDS011;62978;51.094;-115.362;2022-10-22T14:46:21;1.40;;;0.60;;
74492;SDS011;62978;51.094;-115.362;2022-10-22T14:48:48;1.30;;;0.60;;
74492;SDS011;62978;51.094;-115.362;2022-10-22T14:51:18;1.30;;;0.60;;
74492;SDS011;62978;51.094;-115.362;2022-10-22T14:53:47;3.40;;;1.30;;
74492;SDS011;62978;51.094;-115.362;2022-10-22T14:56:17;3.70;;;1.60;;
74492;SDS011;62978;51.094;-115.362;2022-10-22T14:58:47;2.30;;;1.10;;
74492;SDS011;62978;51.094;-115.362;2022-10-22T15:01:15;3.10;;;1.00;;
74492;SDS011;62978;51.094;-115.362;2022-10-22T15:03:42;2.70;;;1.10;;
74492;SDS011;62978;51.094;-115.362;2022-10-22T15:06:10;0.90;;;0.60;;
74492;SDS011;62978;51.094;-115.362;2022-10-22T15:08:37;2.50;;;0.70;;
74492;SDS011;62978;51.094;-115.362;2022-10-22T15:11:07;2.60;;;1.00;;
74492;SDS011;62978;51.094;-115.362;2022-10-22T15:13:37;4.10;;;0.90;;
74492;SDS011;62978;51.094;-115.362;2022-10-22T15:16:08;3.10;;;1.00;;
74492;SDS011;62978;51.094;-115.362;2022-10-22T15:18:36;2.80;;;1.40;;
74492;SDS011;62978;51.094;-115.362;2022-10-22T15:21:06;4.00;;;1.10;;
74492;SDS011;62978;51.094;-115.362;2022-10-22T15:23:38;7.10;;;1.60;;
74492;SDS011;62978;51.094;-115.362;2022-10-22T15:26:10;4.00;;;1.40;;
74492;SDS011;62978;51.094;-115.362;2022-10-22T15:28:39;6.70;;;2.20;;
74492;SDS011;62978;51.094;-115.362;2022-10-22T15:31:07;7.10;;;1.90;;
74492;SDS011;62978;51.094;-115.362;2022-10-22T15:33:40;5.90;;;1.80;;
74492;SDS011;62978;51.094;-115.362;2022-10-22T15:36:13;4.00;;;1.90;;
74492;SDS011;62978;51.094;-115.362;2022-10-22T15:38:42;6.30;;;1.90;;
74492;SDS011;62978;51.094;-115.362;2022-10-22T15:41:10;4.80;;;1.80;;
74492;SDS011;62978;51.094;-115.362;2022-10-22T15:43:38;7.50;;;2.10;;
74492;SDS011;62978;51.094;-115.362;2022-10-22T15:46:16;6.40;;;1.60;;
74492;SDS011;62978;51.094;-115.362;2022-10-22T15:48:45;7.10;;;2.10;;
74492;SDS011;62978;51.094;-115.362;2022-10-22T15:51:14;6.80;;;2.20;;
74492;SDS011;62978;51.094;-115.362;2022-10-22T15:53:43;5.80;;;2.30;;
74492;SDS011;62978;51.094;-115.362;2022-10-22T15:56:21;6.10;;;2.60;;
74492;SDS011;62978;51.094;-115.362;2022-10-22T15:58:57;6.20;;;2.60;;
74492;SDS011;62978;51.094;-115.362;2022-10-22T16:01:27;11.70;;;4.60;;
74492;SDS011;62978;51.094;-115.362;2022-10-22T16:03:54;11.40;;;4.40;;
74492;SDS011;62978;51.094;-115.362;2022-10-22T16:06:31;10.30;;;4.30;;
74492;SDS011;62978;51.094;-115.362;2022-10-22T16:09:03;8.90;;;3.70;;
74492;SDS011;62978;51.094;-115.362;2022-10-22T16:11:33;6.70;;;2.30;;
74492;SDS011;62978;51.094;-115.362;2022-10-22T16:14:02;8.50;;;3.00;;
74492;SDS011;62978;51.094;-115.362;2022-10-22T16:16:31;6.00;;;2.60;;
74492;SDS011;62978;51.094;-115.362;2022-10-22T16:19:00;6.80;;;2.80;;
74492;SDS011;62978;51.094;-115.362;2022-10-22T16:21:28;5.70;;;2.70;;
74492;SDS011;62978;51.094;-115.362;2022-10-22T16:23:56;5.10;;;2.20;;
74492;SDS011;62978;51.094;-115.362;2022-10-22T16:26:26;5.60;;;2.30;;